Time;durP1;ratioP1;P1;durP2;ratioP2;P2;SDS_P1;SDS_P2;PMS_P1;PMS_P2;Temp;Humidity;BMP_temperature;BMP_pressure;BME280_temperature;BME280_humidity;BME280_pressure;Samples;Min_cycle;Max_cycle;Signal;HPM_P1;HPM_P2
2023/04/08 00:00:23;;;;;;;6.33;5.73;;;;;;;5.63;100.00;102715.22;4988894;28;20204;-71
2023/04/08 00:02:48;;;;;;;7.43;6.40;;;;;;;5.30;100.00;102744.50;4973352;28;20210;-71
2023/04/08 00:05:13;;;;;;;6.80;5.97;;;;;;;4.87;100.00;102689.22;4987354;28;20268;-71
2023/04/08 00:07:39;;;;;;;6.60;5.90;;;;;;;5.15;100.00;102717.22;4988790;28;20195;-71
2023/04/08 00:10:05;;;;;;;7.30;6.50;;;;;;;5.01;100.00;102742.22;4988254;28;20214;-71
2023/04/08 00:12:31;;;;;;;7.73;6.83;;;;;;;5.34;100.00;102720.16;4988864;28;20597;-71
2023/04/08 00:14:57;;;;;;;6.80;6.07;;;;;;;4.69;100.00;102644.47;4986739;28;20447;-71
2023/04/08 00:17:22;;;;;;;7.53;6.70;;;;;;;5.60;100.00;102757.22;4988899;28;20432;-71
2023/04/08 00:19:48;;;;;;;7.30;6.60;;;;;;;5.11;100.00;102660.75;4987710;28;20196;-71
2023/04/08 00:22:13;;;;;;;8.00;6.80;;;;;;;5.47;100.00;102754.69;4965781;28;20189;-71
2023/04/08 00:24:39;;;;;;;8.17;7.07;;;;;;;4.31;100.00;102660.63;4980112;28;20209;-71
2023/04/08 00:27:05;;;;;;;8.50;7.43;;;;;;;4.79;100.00;102784.66;4972993;28;20248;-71
2023/04/08 00:29:31;;;;;;;8.67;7.13;;;;;;;4.80;100.00;102802.31;4978831;28;20674;-71
2023/04/08 00:31:56;;;;;;;8.50;7.67;;;;;;;4.56;100.00;102810.28;4979654;28;20201;-71
2023/04/08 00:34:22;;;;;;;7.73;6.93;;;;;;;4.21;100.00;102758.72;4980186;28;20248;-71
2023/04/08 00:36:47;;;;;;;8.47;7.33;;;;;;;4.55;100.00;102801.47;4965931;28;20642;-71
2023/04/08 00:39:14;;;;;;;11.80;8.33;;;;;;;5.50;100.00;102830.78;4981842;28;20201;-71
2023/04/08 00:41:39;;;;;;;8.47;7.53;;;;;;;5.44;100.00;102805.50;4982595;28;20237;-71
2023/04/08 00:44:05;;;;;;;8.50;7.60;;;;;;;5.64;100.00;102814.59;4978265;28;25569;-72
2023/04/08 00:46:36;;;;;;;9.23;7.60;;;;;;;5.11;100.00;102703.31;4978586;28;20264;-71
2023/04/08 00:49:01;;;;;;;8.73;7.77;;;;;;;5.47;100.00;102791.94;4979456;28;20197;-71
2023/04/08 00:51:30;;;;;;;9.03;8.07;;;;;;;5.34;100.00;102796.50;4982286;28;20520;-72
2023/04/08 00:53:56;;;;;;;10.70;7.83;;;;;;;5.03;100.00;102731.47;4984721;28;20243;-71
2023/04/08 00:56:23;;;;;;;8.60;7.70;;;;;;;5.66;100.00;102816.16;4984203;28;20444;-71
2023/04/08 00:58:52;;;;;;;9.93;8.93;;;;;;;5.69;100.00;102817.75;4986431;28;20217;-71
2023/04/08 01:01:27;;;;;;;8.87;7.97;;;;;;;5.10;100.00;102786.75;4984619;28;20448;-71
2023/04/08 01:04:27;;;;;;;9.50;8.50;;;;;;;5.21;100.00;102847.13;4980343;28;20472;-71
2023/04/08 01:06:58;;;;;;;13.43;8.30;;;;;;;5.61;100.00;102846.78;4982054;28;20460;-71
2023/04/08 01:09:28;;;;;;;9.87;8.60;;;;;;;5.70;100.00;102846.09;4979524;28;21197;-71
2023/04/08 01:11:55;;;;;;;9.30;8.23;;;;;;;5.68;100.00;102812.56;4978034;28;20445;-71
2023/04/08 01:14:27;;;;;;;9.00;8.10;;;;;;;5.04;100.00;102773.06;4977157;28;20469;-71
2023/04/08 01:16:55;;;;;;;8.27;7.50;;;;;;;5.74;100.00;102844.88;4962747;28;20480;-71
2023/04/08 01:19:29;;;;;;;10.17;8.93;;;;;;;5.77;100.00;102827.81;4981506;28;20451;-71
2023/04/08 01:22:15;;;;;;;10.27;8.63;;;;;;;5.86;100.00;102835.94;4983025;28;20527;-71
2023/04/08 01:24:44;;;;;;;10.33;9.03;;;;;;;5.66;100.00;102833.97;4980776;28;20460;-71
2023/04/08 01:27:11;;;;;;;10.40;8.80;;;;;;;5.78;100.00;102834.81;4976594;28;20476;-71
2023/04/08 01:29:38;;;;;;;9.53;8.63;;;;;;;4.96;100.00;102725.75;4977292;28;20443;-71
2023/04/08 01:32:06;;;;;;;11.00;9.23;;;;;;;5.48;100.00;102828.22;4980739;28;20539;-71
2023/04/08 01:34:34;;;;;;;10.17;9.07;;;;;;;5.46;100.00;102766.28;4979968;28;20567;-71
2023/04/08 01:37:01;;;;;;;9.50;8.60;;;;;;;5.78;100.00;102803.72;4985659;28;20451;-71
2023/04/08 01:39:29;;;;;;;10.20;9.13;;;;;;;6.30;100.00;102833.44;4976549;28;20535;-71
2023/04/08 01:41:57;;;;;;;9.47;8.10;;;;;;;5.95;100.00;102841.53;4984480;28;20476;-71
2023/04/08 01:44:25;;;;;;;12.00;9.27;;;;;;;5.25;100.00;102798.03;4961102;28;20822;-71
2023/04/08 01:46:52;;;;;;;11.50;10.40;;;;;;;5.39;100.00;102851.06;4978589;28;20464;-71
2023/04/08 01:49:19;;;;;;;11.87;9.43;;;;;;;5.85;100.00;102868.03;4982088;28;20555;-71
2023/04/08 01:51:47;;;;;;;11.80;10.30;;;;;;;5.85;100.00;102777.47;4984136;28;20444;-72
2023/04/08 01:54:12;;;;;;;11.43;10.33;;;;;;;5.36;100.00;102688.13;4984570;28;21357;-71
2023/04/08 01:56:41;;;;;;;10.77;9.67;;;;;;;5.97;100.00;102853.78;4980828;28;20447;-71
2023/04/08 01:59:12;;;;;;;12.90;11.27;;;;;;;5.97;100.00;102868.94;4980866;28;20240;-71
2023/04/08 02:01:38;;;;;;;12.80;10.97;;;;;;;6.27;100.00;102857.66;4984332;28;20446;-71
2023/04/08 02:04:04;;;;;;;12.87;11.00;;;;;;;6.16;100.00;102870.97;4978753;28;20473;-71
2023/04/08 02:06:30;;;;;;;11.33;10.23;;;;;;;6.08;100.00;102851.13;4980337;28;20480;-71
2023/04/08 02:08:56;;;;;;;13.80;11.27;;;;;;;6.46;100.00;102873.06;4983944;28;20557;-71
2023/04/08 02:11:21;;;;;;;12.90;11.57;;;;;;;5.75;100.00;102825.25;4981173;28;20450;-72
2023/04/08 02:13:48;;;;;;;14.93;11.77;;;;;;;5.41;100.00;102781.78;4980726;28;20222;-71
2023/04/08 02:16:15;;;;;;;12.47;11.17;;;;;;;6.15;100.00;102902.13;4984415;28;20252;-72
2023/04/08 02:18:44;;;;;;;13.27;11.87;;;;;;;5.78;100.00;102840.16;4986723;28;20448;-71
2023/04/08 02:21:15;;;;;;;13.37;12.07;;;;;;;6.24;100.00;102927.19;4986462;28;20455;-72
2023/04/08 02:23:44;;;;;;;13.13;11.83;;;;;;;6.37;100.00;102932.44;4985524;28;20463;-71
2023/04/08 02:26:15;;;;;;;13.00;11.67;;;;;;;5.36;100.00;102799.91;4964263;28;20472;-72
2023/04/08 02:28:41;;;;;;;13.90;12.40;;;;;;;6.04;100.00;102886.97;4982541;28;20444;-71
2023/04/08 02:31:12;;;;;;;13.90;12.50;;;;;;;6.51;100.00;102930.38;4985969;28;20448;-72
2023/04/08 02:33:38;;;;;;;13.57;12.00;;;;;;;6.34;100.00;102934.38;4988421;28;20563;-72
2023/04/08 02:36:05;;;;;;;12.83;11.17;;;;;;;6.20;100.00;102937.25;4984946;28;20931;-71
2023/04/08 02:38:30;;;;;;;13.93;12.53;;;;;;;6.34;100.00;102925.53;4970778;28;20830;-72
2023/04/08 02:40:56;;;;;;;14.13;12.67;;;;;;;6.39;100.00;102952.66;4986124;28;20452;-72
2023/04/08 02:43:30;;;;;;;14.13;11.80;;;;;;;6.38;100.00;102956.28;4982906;28;20210;-71
2023/04/08 02:45:57;;;;;;;14.50;12.03;;;;;;;6.49;100.00;102950.97;4978028;28;20496;-72
2023/04/08 02:48:22;;;;;;;13.33;11.93;;;;;;;6.39;100.00;102919.81;4977092;28;20502;-71
2023/04/08 02:50:47;;;;;;;15.30;12.80;;;;;;;6.85;100.00;102948.19;4965195;28;20816;-72
2023/04/08 02:53:13;;;;;;;14.10;12.70;;;;;;;6.90;100.00;102941.50;4982029;28;20218;-71
2023/04/08 02:55:38;;;;;;;16.00;12.80;;;;;;;6.88;100.00;102935.44;4985039;28;20189;-71
2023/04/08 02:58:04;;;;;;;14.20;12.70;;;;;;;6.28;100.00;102841.56;4986483;28;20220;-71
2023/04/08 03:00:30;;;;;;;13.17;11.87;;;;;;;6.55;100.00;102931.00;4986737;28;20198;-71
2023/04/08 03:02:55;;;;;;;13.40;11.90;;;;;;;6.73;100.00;102950.00;4984249;28;20210;-71
2023/04/08 03:05:21;;;;;;;13.43;12.13;;;;;;;6.48;100.00;102879.97;4984323;28;20224;-72
2023/04/08 03:07:46;;;;;;;13.73;12.40;;;;;;;6.96;100.00;102945.50;4986725;28;20597;-72
2023/04/08 03:10:12;;;;;;;12.50;11.30;;;;;;;6.54;100.00;102951.47;4984683;28;20189;-72
2023/04/08 03:12:37;;;;;;;13.50;12.10;;;;;;;6.69;100.00;102951.22;4981647;28;20201;-71
2023/04/08 03:15:03;;;;;;;13.20;11.47;;;;;;;5.98;100.00;102870.59;4986848;28;20194;-72
2023/04/08 03:17:31;;;;;;;14.10;11.77;;;;;;;6.64;100.00;102950.75;4987504;28;20260;-71
2023/04/08 03:19:57;;;;;;;13.00;11.60;;;;;;;6.95;100.00;102950.00;4986949;28;20938;-71
2023/04/08 03:22:23;;;;;;;13.43;11.87;;;;;;;6.18;100.00;102834.41;4985361;28;20444;-72
2023/04/08 03:24:48;;;;;;;13.87;11.37;;;;;;;6.66;100.00;102936.31;4965695;28;21874;-71
2023/04/08 03:27:14;;;;;;;13.20;11.80;;;;;;;6.39;100.00;102883.34;4978359;28;20473;-71
2023/04/08 03:29:40;;;;;;;14.47;11.93;;;;;;;6.27;100.00;102820.34;4977392;28;20195;-72
2023/04/08 03:32:05;;;;;;;12.20;11.10;;;;;;;6.83;100.00;102934.09;4979393;28;20202;-71
2023/04/08 03:34:33;;;;;;;12.60;11.30;;;;;;;6.42;100.00;102920.44;4981659;28;20297;-71
2023/04/08 03:36:58;;;;;;;13.20;11.80;;;;;;;6.50;100.00;102920.66;4976956;28;20189;-72
2023/04/08 03:39:24;;;;;;;13.00;11.70;;;;;;;6.70;100.00;102950.25;4964597;28;20441;-71
2023/04/08 03:41:50;;;;;;;12.03;10.83;;;;;;;6.57;100.00;102935.22;4978707;28;20206;-72
2023/04/08 03:44:15;;;;;;;13.60;12.27;;;;;;;6.55;100.00;102962.97;4977031;28;20619;-72
2023/04/08 03:46:40;;;;;;;12.27;11.00;;;;;;;6.73;100.00;102900.19;4980497;28;21955;-72
2023/04/08 03:49:06;;;;;;;11.90;10.70;;;;;;;6.58;100.00;102856.09;4983366;28;20194;-71
2023/04/08 03:51:31;;;;;;;12.57;11.10;;;;;;;7.13;100.00;102933.47;4983675;28;20574;-72
2023/04/08 03:53:57;;;;;;;12.67;11.00;;;;;;;7.14;100.00;102908.47;4968603;28;20672;-72
2023/04/08 03:56:23;;;;;;;12.23;10.90;;;;;;;6.53;100.00;102829.78;4988117;28;20182;-72
2023/04/08 03:58:49;;;;;;;11.50;10.40;;;;;;;6.97;100.00;102902.69;4981305;28;20190;-72
2023/04/08 04:01:15;;;;;;;12.10;10.90;;;;;;;5.89;100.00;102768.25;4983290;28;20697;-71
2023/04/08 04:03:40;;;;;;;13.33;10.90;;;;;;;6.46;100.00;102811.75;4983287;28;20559;-71
2023/04/08 04:06:06;;;;;;;12.43;11.17;;;;;;;6.48;100.00;102863.09;4982524;28;20209;-70
2023/04/08 04:08:31;;;;;;;12.50;11.17;;;;;;;6.63;100.00;102914.38;4984076;28;20560;-71
2023/04/08 04:10:58;;;;;;;13.57;12.07;;;;;;;6.50;100.00;102919.84;4984301;28;20194;-71
2023/04/08 04:13:23;;;;;;;13.23;11.83;;;;;;;5.76;100.00;102804.81;4982402;28;20217;-71
2023/04/08 04:15:49;;;;;;;14.00;12.63;;;;;;;6.50;100.00;102920.66;4981888;28;21213;-70
2023/04/08 04:18:15;;;;;;;11.50;10.40;;;;;;;5.69;100.00;102811.56;4994513;23;20233;-71
2023/04/08 04:20:41;;;;;;;12.50;11.30;;;;;;;6.06;100.00;102855.72;4975334;28;20669;-70
2023/04/08 04:23:07;;;;;;;12.27;11.07;;;;;;;6.11;100.00;102906.84;4979421;28;20574;-71
2023/04/08 04:25:32;;;;;;;15.00;12.10;;;;;;;5.69;100.00;102787.63;4975143;28;20465;-71
2023/04/08 04:27:57;;;;;;;12.20;10.90;;;;;;;6.61;100.00;102930.50;4977794;28;20908;-71
2023/04/08 04:30:23;;;;;;;12.53;11.23;;;;;;;6.33;100.00;102846.53;4961264;28;20905;-71
2023/04/08 04:32:48;;;;;;;12.50;11.30;;;;;;;6.06;100.00;102847.72;4974617;28;20201;-71
2023/04/08 04:35:14;;;;;;;12.37;11.03;;;;;;;6.26;100.00;102907.47;4973061;28;20594;-71
2023/04/08 04:37:39;;;;;;;11.70;10.50;;;;;;;5.21;100.00;102749.53;4975110;28;20321;-71
2023/04/08 04:40:06;;;;;;;12.30;11.10;;;;;;;6.83;100.00;102966.13;4975054;28;20281;-71
2023/04/08 04:42:32;;;;;;;12.80;11.37;;;;;;;6.27;100.00;102863.00;4982686;28;20193;-71
2023/04/08 04:44:58;;;;;;;13.13;11.90;;;;;;;6.70;100.00;102867.56;4977027;28;20534;-71
2023/04/08 04:47:24;;;;;;;12.03;10.80;;;;;;;6.41;100.00;102873.41;4964068;28;20727;-71
2023/04/08 04:49:49;;;;;;;11.50;10.40;;;;;;;6.48;100.00;102898.63;4980163;28;20544;-71
2023/04/08 04:52:15;;;;;;;14.07;10.77;;;;;;;6.85;100.00;102943.69;4980339;28;20462;-71
2023/04/08 04:54:40;;;;;;;12.70;10.03;;;;;;;6.94;100.00;102948.31;4976963;28;20273;-71
2023/04/08 04:57:06;;;;;;;13.50;11.10;;;;;;;6.92;100.00;102947.56;4982132;28;20186;-71
2023/04/08 04:59:31;;;;;;;12.80;11.20;;;;;;;6.73;100.00;102955.34;4985487;28;20690;-71
2023/04/08 05:01:57;;;;;;;13.73;11.17;;;;;;;6.38;100.00;102879.00;4978830;28;20200;-71
2023/04/08 05:04:23;;;;;;;13.20;11.23;;;;;;;6.35;100.00;102940.53;4981997;28;20192;-71
2023/04/08 05:06:49;;;;;;;11.30;10.20;;;;;;;6.43;100.00;102975.47;4985228;28;20583;-71
2023/04/08 05:09:14;;;;;;;11.77;10.57;;;;;;;5.82;100.00;102898.41;4988214;28;20456;-72
2023/04/08 05:11:40;;;;;;;12.37;11.07;;;;;;;6.39;100.00;102983.78;4988036;28;20202;-71
2023/04/08 05:14:06;;;;;;;12.90;11.60;;;;;;;5.80;100.00;102892.34;4985596;28;20189;-71
2023/04/08 05:16:32;;;;;;;10.73;9.60;;;;;;;6.37;100.00;102994.59;4980520;28;20691;-71
2023/04/08 05:18:57;;;;;;;11.57;10.37;;;;;;;5.91;100.00;102931.47;4981212;28;20730;-72
2023/04/08 05:21:22;;;;;;;12.17;10.90;;;;;;;6.43;100.00;103007.44;4986561;28;20471;-71
2023/04/08 05:23:50;;;;;;;11.10;10.10;;;;;;;6.11;100.00;102937.97;4980717;28;20193;-72
2023/04/08 05:26:15;;;;;;;11.83;10.63;;;;;;;5.31;100.00;102839.31;4976641;28;20210;-71
2023/04/08 05:28:41;;;;;;;10.60;9.53;;;;;;;5.81;100.00;102882.53;4977355;28;20456;-71
2023/04/08 05:31:06;;;;;;;10.33;9.37;;;;;;;5.04;100.00;102818.28;4980395;28;20474;-71
2023/04/08 05:33:32;;;;;;;11.83;9.60;;;;;;;6.08;100.00;102971.03;4982492;28;20258;-71
2023/04/08 05:35:57;;;;;;;9.67;8.77;;;;;;;6.50;100.00;103023.81;4976474;28;20603;-71
2023/04/08 05:38:23;;;;;;;10.03;9.13;;;;;;;6.19;100.00;102922.25;4976259;28;20851;-71
2023/04/08 05:40:48;;;;;;;9.47;8.47;;;;;;;6.16;100.00;102957.09;4974583;28;20193;-72
2023/04/08 05:43:13;;;;;;;11.50;10.17;;;;;;;6.72;100.00;103013.19;4977936;28;20181;-71
2023/04/08 05:45:39;;;;;;;9.73;8.83;;;;;;;6.07;100.00;102894.72;4977825;28;20252;-71
2023/04/08 05:48:05;;;;;;;11.03;9.37;;;;;;;6.18;100.00;102901.88;4977019;28;20650;-71
2023/04/08 05:50:30;;;;;;;11.30;9.33;;;;;;;6.09;100.00;102836.84;4980067;28;20197;-71
2023/04/08 05:52:55;;;;;;;10.27;9.27;;;;;;;7.05;100.00;103000.78;4984430;28;20197;-71
2023/04/08 05:55:21;;;;;;;9.57;8.53;;;;;;;7.02;100.00;102999.22;4972888;28;20217;-71
2023/04/08 05:57:46;;;;;;;9.90;8.77;;;;;;;6.72;100.00;102994.50;4984700;28;20267;-71
2023/04/08 06:00:12;;;;;;;9.40;8.40;;;;;;;6.16;100.00;102879.81;4986699;28;20277;-71
2023/04/08 06:02:37;;;;;;;8.93;8.03;;;;;;;6.46;100.00;102937.03;4983841;28;20206;-71
2023/04/08 06:05:03;;;;;;;8.80;7.87;;;;;;;6.16;100.00;102894.97;4987887;28;20240;-71
2023/04/08 06:07:29;;;;;;;11.03;8.60;;;;;;;6.71;100.00;102995.50;4986395;28;20241;-71
2023/04/08 06:09:55;;;;;;;10.40;8.70;;;;;;;6.76;100.00;103003.09;4970300;28;20190;-72
2023/04/08 06:12:20;;;;;;;9.77;8.80;;;;;;;6.91;100.00;103019.72;4981336;28;20902;-71
2023/04/08 06:14:46;;;;;;;9.13;8.20;;;;;;;6.63;100.00;103021.06;4980579;28;20186;-71
2023/04/08 06:17:11;;;;;;;8.40;7.50;;;;;;;6.40;100.00;102983.69;4984480;28;20182;-71
2023/04/08 06:19:36;;;;;;;8.20;7.13;;;;;;;6.36;100.00;102992.03;4984774;28;20803;-71
2023/04/08 06:22:02;;;;;;;9.60;7.60;;;;;;;5.70;100.00;102893.13;4989069;28;20688;-71
2023/04/08 06:24:28;;;;;;;7.37;6.67;;;;;;;6.15;100.00;102967.88;4989956;28;20193;-72
2023/04/08 06:26:55;;;;;;;7.50;6.73;;;;;;;6.11;100.00;102973.47;4989926;28;20244;-72
2023/04/08 06:29:21;;;;;;;8.30;6.67;;;;;;;6.50;100.00;103037.13;4970215;28;20954;-71
2023/04/08 06:31:47;;;;;;;8.37;6.63;;;;;;;6.90;100.00;103069.56;4985733;28;20452;-72
2023/04/08 06:34:13;;;;;;;7.97;7.17;;;;;;;6.27;100.00;102948.28;4967685;28;20445;-71
2023/04/08 06:36:38;;;;;;;8.33;7.00;;;;;;;6.88;100.00;103068.81;4987246;28;20452;-71
2023/04/08 06:39:04;;;;;;;8.00;7.17;;;;;;;6.54;100.00;102975.47;4982787;28;20653;-71
2023/04/08 06:41:30;;;;;;;10.50;7.60;;;;;;;7.29;100.00;103072.75;4984098;28;20220;-72
2023/04/08 06:43:55;;;;;;;9.70;6.97;;;;;;;6.95;100.00;103046.03;4978398;28;20192;-72
2023/04/08 06:46:21;;;;;;;8.97;7.63;;;;;;;6.85;100.00;103030.88;4981905;28;21927;-71
2023/04/08 06:48:46;;;;;;;8.63;7.73;;;;;;;7.21;100.00;103077.84;4987128;28;20247;-72
2023/04/08 06:51:12;;;;;;;11.53;7.70;;;;;;;6.88;100.00;103038.63;4982018;28;20198;-71
2023/04/08 06:53:37;;;;;;;10.40;8.43;;;;;;;6.54;100.00;102978.13;4963015;28;20182;-71
2023/04/08 06:56:03;;;;;;;10.10;8.07;;;;;;;6.10;100.00;102930.94;4981824;28;20280;-72
2023/04/08 06:58:28;;;;;;;8.83;7.90;;;;;;;6.73;100.00;103014.88;4980746;28;20220;-71
2023/04/08 07:00:57;;;;;;;14.03;8.63;;;;;;;7.18;100.00;103076.25;4988286;28;20695;-71
2023/04/08 07:03:22;;;;;;;9.80;7.53;;;;;;;7.32;100.00;103093.84;4990157;28;20281;-71
2023/04/08 07:05:48;;;;;;;9.23;8.03;;;;;;;6.92;100.00;103010.75;4986109;28;20559;-71
2023/04/08 07:08:13;;;;;;;9.50;8.47;;;;;;;7.13;100.00;103026.88;4964868;28;20229;-71
2023/04/08 07:10:39;;;;;;;11.77;8.13;;;;;;;6.87;100.00;102997.78;4990954;28;20243;-71
2023/04/08 07:13:05;;;;;;;10.97;7.90;;;;;;;6.62;100.00;102958.84;4990751;28;20648;-71
2023/04/08 07:15:30;;;;;;;9.00;7.83;;;;;;;6.87;100.00;102996.94;4982230;28;20182;-69
2023/04/08 07:17:56;;;;;;;11.60;8.67;;;;;;;7.61;100.00;103077.31;4985526;28;20216;-70
2023/04/08 07:20:22;;;;;;;9.00;7.93;;;;;;;7.73;100.00;103051.41;4969974;28;20192;-70
2023/04/08 07:22:48;;;;;;;11.57;8.87;;;;;;;7.71;100.00;103043.50;4968909;28;20186;-71
2023/04/08 07:25:14;;;;;;;13.10;8.73;;;;;;;7.45;100.00;103043.81;4963287;28;20535;-72
2023/04/08 07:27:40;;;;;;;9.83;8.27;;;;;;;7.44;100.00;103026.09;4962926;28;20859;-70
2023/04/08 07:30:06;;;;;;;13.47;9.30;;;;;;;7.60;100.00;103068.41;4985063;28;20520;-70
2023/04/08 07:32:32;;;;;;;10.63;9.53;;;;;;;7.63;100.00;103053.97;4984954;28;20178;-70
2023/04/08 07:34:59;;;;;;;11.40;9.17;;;;;;;6.78;100.00;102915.81;4981612;28;20467;-70
2023/04/08 07:37:24;;;;;;;12.33;10.27;;;;;;;7.45;100.00;103014.44;4982548;28;20441;-71
2023/04/08 07:39:50;;;;;;;13.27;9.13;;;;;;;7.41;100.00;103034.38;4985118;28;20818;-71
2023/04/08 07:42:15;;;;;;;13.10;9.60;;;;;;;7.82;100.00;103072.03;4983228;28;20197;-72
2023/04/08 07:44:41;;;;;;;13.27;10.47;;;;;;;7.87;100.00;103051.97;4981563;28;20625;-71
2023/04/08 07:47:06;;;;;;;12.73;10.60;;;;;;;7.28;100.00;102961.56;4966244;28;20205;-71
2023/04/08 07:49:31;;;;;;;12.27;10.70;;;;;;;7.93;100.00;103046.13;4969574;28;20201;-71
2023/04/08 07:51:57;;;;;;;12.90;10.63;;;;;;;7.36;100.00;102942.25;4986943;28;20185;-71
2023/04/08 07:54:23;;;;;;;13.60;10.80;;;;;;;8.28;100.00;103062.84;4980996;28;20199;-71
2023/04/08 07:56:48;;;;;;;14.30;11.00;;;;;;;7.72;100.00;102978.41;4990981;28;20216;-72
2023/04/08 07:59:14;;;;;;;14.30;10.57;;;;;;;8.06;100.00;103066.47;4972444;28;20305;-72
2023/04/08 08:01:39;;;;;;;15.77;10.90;;;;;;;7.97;100.00;103045.84;4988019;28;20193;-72
2023/04/08 08:04:05;;;;;;;13.40;11.00;;;;;;;7.80;100.00;103016.03;4987399;28;20206;-71
2023/04/08 08:06:33;;;;;;;12.87;10.70;;;;;;;7.29;100.00;102904.56;4985264;28;20267;-71
2023/04/08 08:08:59;;;;;;;16.43;12.27;;;;;;;7.68;100.00;102961.81;4982213;28;20205;-72
2023/04/08 08:11:28;;;;;;;17.40;12.90;;;;;;;7.81;100.00;102966.13;4982460;28;20429;-71
2023/04/08 08:13:54;;;;;;;19.63;14.23;;;;;;;8.38;100.00;103067.31;4979851;28;20951;-70
2023/04/08 08:16:19;;;;;;;20.33;15.03;;;;;;;7.94;100.00;103001.53;4963586;28;20444;-70
2023/04/08 08:18:45;;;;;;;19.57;14.90;;;;;;;8.51;100.00;103058.25;4966879;28;20641;-70
2023/04/08 08:21:10;;;;;;;20.70;15.23;;;;;;;7.80;100.00;102959.09;4980738;28;20815;-70
2023/04/08 08:23:36;;;;;;;19.20;15.60;;;;;;;8.56;100.00;103102.38;4977510;28;20431;-71
2023/04/08 08:26:08;;;;;;;19.40;15.50;;;;;;;8.59;100.00;103099.44;4962002;28;20205;-71
2023/04/08 08:28:34;;;;;;;21.30;16.37;;;;;;;8.32;100.00;103072.31;4980827;28;20220;-71
2023/04/08 08:30:59;;;;;;;21.60;15.90;;;;;;;7.21;100.00;102891.84;4979878;28;20441;-71
2023/04/08 08:33:25;;;;;;;21.13;15.07;;;;;;;8.26;100.00;103060.28;4981224;28;20527;-69
2023/04/08 08:35:51;;;;;;;21.50;16.90;;;;;;;7.69;100.00;102960.84;4966145;28;20190;-69
2023/04/08 08:38:17;;;;;;;25.73;17.00;;;;;;;7.83;100.00;102978.38;4978350;28;20201;-69
2023/04/08 08:40:46;;;;;;;23.20;16.83;;;;;;;8.42;100.00;103073.28;4978919;28;20215;-69
2023/04/08 08:43:12;;;;;;;22.60;15.37;;;;;;;6.91;100.00;102846.31;4978026;28;20195;-69
2023/04/08 08:45:41;;;;;;;21.30;16.00;;;;;;;8.45;100.00;103094.41;4962784;28;20435;-69
2023/04/08 08:48:07;;;;;;;22.40;15.80;;;;;;;8.14;100.00;103024.75;4966393;28;20460;-69
2023/04/08 08:50:33;;;;;;;22.13;15.63;;;;;;;8.72;100.00;103130.50;4989588;28;20420;-71
2023/04/08 08:52:59;;;;;;;22.60;16.20;;;;;;;8.02;100.00;103033.81;4989148;28;20421;-69
2023/04/08 08:55:24;;;;;;;25.17;15.17;;;;;;;8.67;100.00;103096.09;4985095;28;20833;-70
2023/04/08 08:57:50;;;;;;;19.63;14.30;;;;;;;8.31;100.00;103058.09;4982376;28;20217;-69
2023/04/08 09:00:17;;;;;;;22.60;14.80;;;;;;;8.69;100.00;103136.09;4973148;28;20685;-73
2023/04/08 09:02:43;;;;;;;23.97;15.17;;;;;;;8.60;100.00;103078.88;4969522;28;20665;-71
2023/04/08 09:05:08;;;;;;;20.13;15.50;;;;;;;8.09;100.00;103005.56;4986724;28;20441;-70
2023/04/08 09:07:40;;;;;;;21.00;15.57;;;;;;;8.28;100.00;103074.41;4987723;28;20472;-70
2023/04/08 09:10:07;;;;;;;21.07;15.00;;;;;;;8.12;100.00;103016.00;4987771;28;20205;-70
2023/04/08 09:12:32;;;;;;;21.20;15.13;;;;;;;8.79;100.00;103115.59;4988132;28;20425;-70
2023/04/08 09:15:08;;;;;;;19.80;14.60;;;;;;;8.81;100.00;103124.34;4986002;28;20431;-71
2023/04/08 09:17:37;;;;;;;23.47;15.57;;;;;;;8.59;100.00;103083.38;4987311;28;20202;-71
2023/04/08 09:20:13;;;;;;;20.93;14.83;;;;;;;8.67;100.00;103101.44;4982055;28;20452;-72
2023/04/08 09:23:00;;;;;;;21.23;15.23;;;;;;;8.81;100.00;103119.84;4985104;28;20433;-72
2023/04/08 09:25:27;;;;;;;27.80;15.23;;;;;;;8.56;100.00;103037.28;4982536;28;21238;-72
2023/04/08 09:27:53;;;;;;;24.77;17.93;;;;;;;9.15;100.00;103132.16;4967970;28;20475;-72
2023/04/08 09:30:26;;;;;;;20.93;15.80;;;;;;;8.80;100.00;103115.47;4981456;28;20536;-72
2023/04/08 09:32:57;;;;;;;20.17;15.37;;;;;;;8.82;100.00;103076.06;4983065;28;20432;-72
2023/04/08 09:35:23;;;;;;;14.90;12.40;;;;;;;9.00;100.00;103118.28;4983483;28;20860;-72
2023/04/08 09:37:50;;;;;;;20.53;12.60;;;;;;;8.47;100.00;103014.88;4980833;28;20464;-73
2023/04/08 09:40:16;;;;;;;20.17;14.17;;;;;;;7.45;100.00;102888.94;4964224;28;20437;-72
2023/04/08 09:42:50;;;;;;;18.80;13.93;;;;;;;9.11;100.00;103125.34;4966202;28;20436;-72
2023/04/08 09:45:17;;;;;;;20.30;13.63;;;;;;;7.80;100.00;102892.28;4983339;28;20432;-72
2023/04/08 09:48:17;;;;;;;16.47;13.80;;;;;;;8.18;100.00;102953.16;4985086;28;20472;-71
2023/04/08 09:50:48;;;;;;;17.63;13.50;;;;;;;7.93;100.00;102909.84;4986436;28;20440;-72
2023/04/08 09:53:21;;;;;;;14.20;11.80;;;;;;;8.10;100.00;102944.94;4985324;28;20436;-71
2023/04/08 09:55:50;;;;;;;14.60;10.80;;;;;;;9.20;100.00;103090.59;4982900;28;21506;-71
2023/04/08 09:58:26;;;;;;;14.63;11.47;;;;;;;8.31;100.00;102935.09;4971943;28;20974;-72
2023/04/08 10:00:53;;;;;;;14.50;12.30;;;;;;;8.93;100.00;103044.81;4985998;28;20443;-72
2023/04/08 10:03:19;;;;;;;16.00;12.43;;;;;;;9.22;100.00;103087.78;4988798;28;20453;-71
2023/04/08 10:05:46;;;;;;;17.83;13.90;;;;;;;8.87;100.00;103048.88;4989188;28;20469;-71
2023/04/08 10:08:12;;;;;;;16.87;13.80;;;;;;;8.57;100.00;102977.50;4985962;28;20969;-71
2023/04/08 10:10:39;;;;;;;15.63;13.30;;;;;;;7.77;100.00;102845.31;4989720;28;20542;-71
2023/04/08 10:13:06;;;;;;;15.10;13.50;;;;;;;9.07;100.00;103076.59;4988255;28;20444;-71
2023/04/08 10:15:39;;;;;;;20.40;16.77;;;;;;;8.35;100.00;103014.06;4971346;28;20437;-72
2023/04/08 10:18:05;;;;;;;21.73;15.07;;;;;;;9.11;100.00;103101.25;4983737;28;20472;-71
2023/04/08 10:20:33;;;;;;;18.40;14.80;;;;;;;9.11;100.00;103103.94;5020378;23;20511;-73
2023/04/08 10:23:03;;;;;;;17.80;16.00;;;;;;;8.85;100.00;103072.25;4985699;28;20636;-73
2023/04/08 10:25:42;;;;;;;21.27;18.03;;;;;;;9.21;100.00;103104.84;4970560;28;20452;-74
2023/04/08 10:28:10;;;;;;;20.17;17.90;;;;;;;9.21;100.00;103099.47;4969753;28;20942;-73
2023/04/08 10:30:39;;;;;;;20.97;17.30;;;;;;;9.04;100.00;103080.38;4986249;28;20485;-74
2023/04/08 10:33:23;;;;;;;20.80;18.40;;;;;;;9.12;100.00;103087.75;4982634;28;20498;-72
2023/04/08 10:35:52;;;;;;;27.13;18.30;;;;;;;9.20;100.00;103097.75;4985015;28;20446;-73
2023/04/08 10:38:18;;;;;;;26.63;19.07;;;;;;;8.76;100.00;103036.41;4974735;28;20965;-72
2023/04/08 10:40:44;;;;;;;21.40;19.10;;;;;;;9.12;100.00;103085.06;4986325;28;20551;-72
2023/04/08 10:43:11;;;;;;;22.13;19.73;;;;;;;8.82;100.00;103033.25;4982627;28;20928;-73
2023/04/08 10:45:38;;;;;;;23.23;20.73;;;;;;;8.15;100.00;102924.00;4983621;28;20449;-73
2023/04/08 10:48:12;;;;;;;26.20;20.70;;;;;;;9.25;100.00;103071.44;4986859;28;20445;-73
2023/04/08 10:50:38;;;;;;;29.70;24.37;;;;;;;8.56;100.00;102959.72;4985332;28;20467;-73
2023/04/08 10:53:04;;;;;;;26.13;22.50;;;;;;;8.60;100.00;102948.63;4989412;28;20460;-73
2023/04/08 10:55:30;;;;;;;27.40;24.17;;;;;;;9.46;100.00;103044.59;4985382;28;20456;-73
2023/04/08 10:58:04;;;;;;;29.60;25.50;;;;;;;9.04;100.00;102962.59;4988027;28;20193;-73
2023/04/08 11:00:38;;;;;;;28.43;25.30;;;;;;;9.48;100.00;103026.53;4987047;28;20499;-73
2023/04/08 11:03:05;;;;;;;28.10;24.63;;;;;;;9.27;100.00;102981.09;4986793;28;20475;-73
2023/04/08 11:05:31;;;;;;;22.87;20.23;;;;;;;9.74;100.00;103021.50;4984392;28;20507;-73
2023/04/08 11:07:59;;;;;;;23.40;19.10;;;;;;;9.04;100.00;102870.72;4970846;28;20441;-73
2023/04/08 11:10:25;;;;;;;22.80;19.47;;;;;;;9.55;100.00;102936.59;4986926;28;21024;-73
2023/04/08 11:12:53;;;;;;;21.30;18.90;;;;;;;9.95;100.00;102997.22;4986503;28;20544;-73